createdAt,value
2019-03-16T00:06:43.118Z,2.60
2019-03-16T00:09:12.745Z,2.10
2019-03-16T00:11:42.916Z,2.40
2019-03-16T00:14:13.503Z,3.07
2019-03-16T00:17:02.309Z,2.50
2019-03-16T00:19:32.569Z,2.60
2019-03-16T00:22:02.839Z,2.90
2019-03-16T00:24:33.122Z,3.10
2019-03-16T00:27:02.892Z,3.00
2019-03-16T00:29:32.427Z,4.07
2019-03-16T00:32:12.769Z,3.50
2019-03-16T00:34:33.191Z,3.90
2019-03-16T00:37:02.774Z,3.83
2019-03-16T00:39:32.334Z,3.70
2019-03-16T00:42:05.426Z,3.10
2019-03-16T00:44:35.046Z,7.10
2019-03-16T00:47:04.596Z,5.10
2019-03-16T00:49:34.189Z,3.73
2019-03-16T00:52:03.782Z,5.13
2019-03-16T00:54:33.328Z,6.93
2019-03-16T00:57:02.966Z,8.20
2019-03-16T00:59:32.618Z,7.07
2019-03-16T01:02:02.214Z,6.47
2019-03-16T01:04:31.740Z,6.73
2019-03-16T01:07:01.288Z,13.60
2019-03-16T01:09:30.850Z,6.10
2019-03-16T01:12:00.708Z,7.40
2019-03-16T01:14:30.319Z,8.37
2019-03-16T01:16:59.907Z,9.80
2019-03-16T01:19:29.455Z,8.50
2019-03-16T01:21:59.623Z,7.93
2019-03-16T01:27:05.214Z,3.50
2019-03-16T01:32:10.223Z,3.40
2019-03-16T01:34:40.024Z,6.97
2019-03-16T01:37:09.634Z,3.33
2019-03-16T01:39:39.196Z,9.43
2019-03-16T01:42:08.730Z,3.70
2019-03-16T01:44:38.356Z,3.37
2019-03-16T01:47:07.878Z,3.83
2019-03-16T01:49:37.419Z,2.70
2019-03-16T01:52:06.944Z,2.80
2019-03-16T01:54:37.066Z,2.80
2019-03-16T01:57:07.375Z,2.77
2019-03-16T01:59:37.614Z,3.37
2019-03-16T02:02:07.844Z,3.70
2019-03-16T02:04:38.342Z,3.20
2019-03-16T02:07:08.578Z,2.57
2019-03-16T02:09:38.802Z,2.33
2019-03-16T02:12:09.109Z,3.20
2019-03-16T02:14:39.366Z,4.73
2019-03-16T02:17:09.606Z,2.70
2019-03-16T02:19:39.898Z,2.60
2019-03-16T02:22:10.131Z,4.37
2019-03-16T02:24:40.386Z,4.33
2019-03-16T02:27:10.607Z,3.03
2019-03-16T02:29:41.107Z,2.80
2019-03-16T02:32:11.327Z,2.20
2019-03-16T02:34:41.566Z,2.47
2019-03-16T02:37:11.229Z,3.03
2019-03-16T02:39:40.780Z,3.47
2019-03-16T02:42:10.275Z,3.07
2019-03-16T02:44:39.839Z,4.90
2019-03-16T02:47:09.430Z,2.70
2019-03-16T02:49:38.991Z,3.30
2019-03-16T02:52:09.227Z,2.73
2019-03-16T02:54:39.632Z,4.70
2019-03-16T02:57:09.991Z,2.83
2019-03-16T02:59:40.273Z,2.63
2019-03-16T03:02:10.058Z,2.30
2019-03-16T03:04:39.681Z,2.23
2019-03-16T03:07:09.469Z,2.70
2019-03-16T03:09:39.020Z,2.27
2019-03-16T03:12:08.554Z,2.40
2019-03-16T03:14:38.213Z,2.50
2019-03-16T03:17:07.805Z,2.10
2019-03-16T03:19:37.363Z,2.77
2019-03-16T03:22:06.929Z,2.33
2019-03-16T03:24:36.476Z,2.17
2019-03-16T03:27:06.025Z,1.97
2019-03-16T03:29:35.576Z,2.80
2019-03-16T03:32:05.083Z,2.87
2019-03-16T03:34:34.659Z,3.57
2019-03-16T03:37:05.397Z,5.30
2019-03-16T03:39:34.976Z,3.57
2019-03-16T03:42:09.128Z,2.40
2019-03-16T03:44:38.720Z,2.30
2019-03-16T03:47:08.327Z,2.67
2019-03-16T03:49:42.270Z,2.37
2019-03-16T03:52:11.775Z,2.90
2019-03-16T03:57:24.775Z,2.50
2019-03-16T03:59:54.347Z,4.50
2019-03-16T04:02:23.938Z,3.63
2019-03-16T04:04:53.483Z,7.30
2019-03-16T04:07:23.092Z,5.50
2019-03-16T04:09:57.976Z,4.80
2019-03-16T04:12:27.788Z,6.67
2019-03-16T04:17:33.022Z,14.60
2019-03-16T04:22:38.088Z,5.10
2019-03-16T04:25:07.675Z,3.97
2019-03-16T04:27:37.171Z,2.90
2019-03-16T04:30:06.720Z,4.07
2019-03-16T04:32:36.249Z,8.90
2019-03-16T04:35:05.831Z,11.87
2019-03-16T04:37:35.360Z,19.43
2019-03-16T04:40:04.950Z,18.67
2019-03-16T04:42:34.485Z,26.27
2019-03-16T04:45:04.221Z,32.17
2019-03-16T04:47:33.748Z,35.00
2019-03-16T04:50:03.309Z,30.30
2019-03-16T04:52:32.952Z,30.33
2019-03-16T04:55:02.504Z,32.73
2019-03-16T04:57:32.154Z,27.70
2019-03-16T05:00:01.757Z,26.53
2019-03-16T05:02:31.327Z,29.77
2019-03-16T05:05:01.027Z,25.23
2019-03-16T05:07:30.567Z,14.77
2019-03-16T05:10:00.168Z,8.30
2019-03-16T05:12:29.870Z,3.63
2019-03-16T05:14:59.402Z,2.60
2019-03-16T05:17:28.928Z,2.63
2019-03-16T05:19:58.482Z,2.50
2019-03-16T05:22:28.044Z,2.50
2019-03-16T05:24:57.597Z,2.20
2019-03-16T05:27:27.132Z,2.23
2019-03-16T05:29:57.972Z,2.40
2019-03-16T05:32:27.698Z,1.70
2019-03-16T05:37:32.793Z,2.07
2019-03-16T05:42:38.603Z,2.53
2019-03-16T05:47:43.530Z,2.00
2019-03-16T05:50:13.333Z,2.90
2019-03-16T05:52:42.858Z,2.70
2019-03-16T05:55:12.460Z,2.83
2019-03-16T05:57:42.011Z,2.80
2019-03-16T06:00:11.524Z,3.10
2019-03-16T06:07:51.801Z,2.83
2019-03-16T06:10:22.865Z,2.90
2019-03-16T06:12:55.442Z,3.10
2019-03-16T06:15:25.237Z,2.70
2019-03-16T06:17:54.775Z,2.80
2019-03-16T06:20:24.362Z,3.17
2019-03-16T06:22:53.902Z,2.40
2019-03-16T06:25:23.516Z,2.40
2019-03-16T06:27:53.123Z,3.00
2019-03-16T06:30:22.656Z,3.03
2019-03-16T06:32:52.199Z,2.40
2019-03-16T06:35:25.072Z,3.70
2019-03-16T06:37:52.942Z,2.10
2019-03-16T06:40:22.459Z,2.17
2019-03-16T06:42:52.044Z,2.10
2019-03-16T06:45:21.554Z,2.40
2019-03-16T06:47:54.481Z,2.30
2019-03-16T06:50:22.366Z,2.60
2019-03-16T06:52:51.978Z,2.47
2019-03-16T06:55:21.552Z,2.90
2019-03-16T06:57:51.155Z,2.40
2019-03-16T07:00:20.683Z,2.43
2019-03-16T07:02:50.224Z,3.00
2019-03-16T07:05:23.462Z,2.77
2019-03-16T07:07:51.072Z,2.50
2019-03-16T07:10:20.652Z,2.57
2019-03-16T07:12:50.202Z,2.60
2019-03-16T07:15:19.764Z,2.47
2019-03-16T07:17:49.318Z,2.40
2019-03-16T07:22:54.029Z,2.67
2019-03-16T07:25:23.814Z,2.67
2019-03-16T07:27:54.005Z,2.60
2019-03-16T07:33:00.098Z,2.23
2019-03-16T07:35:30.346Z,2.30
2019-03-16T07:38:00.588Z,2.40
2019-03-16T07:40:30.903Z,2.40
2019-03-16T07:43:01.138Z,2.70
2019-03-16T07:45:31.399Z,2.03
2019-03-16T07:48:01.632Z,2.43
2019-03-16T07:50:31.862Z,2.93
2019-03-16T07:53:02.288Z,2.40
2019-03-16T07:55:32.575Z,2.37
2019-03-16T07:58:03.280Z,2.33
2019-03-16T08:00:33.534Z,3.03
2019-03-16T08:03:03.854Z,2.53
2019-03-16T08:05:34.175Z,2.63
2019-03-16T08:08:04.396Z,2.60
2019-03-16T08:10:34.109Z,2.60
2019-03-16T08:13:03.622Z,2.77
2019-03-16T08:15:33.216Z,2.53
2019-03-16T08:18:02.838Z,2.40
2019-03-16T08:20:32.503Z,2.50
2019-03-16T08:23:02.046Z,2.70
2019-03-16T08:25:31.594Z,2.77
2019-03-16T08:28:01.122Z,2.03
2019-03-16T08:30:30.659Z,2.20
2019-03-16T08:33:01.034Z,2.37
2019-03-16T08:35:31.307Z,2.40
2019-03-16T08:38:01.546Z,2.10
2019-03-16T08:40:31.802Z,2.27
2019-03-16T08:43:02.022Z,2.33
2019-03-16T08:45:32.263Z,2.20
2019-03-16T08:48:02.781Z,2.47
2019-03-16T08:50:33.048Z,2.37
2019-03-16T08:53:03.367Z,2.03
2019-03-16T08:55:33.599Z,2.10
2019-03-16T08:58:06.226Z,2.00
2019-03-16T09:00:35.902Z,2.27
2019-03-16T09:03:06.402Z,2.53
2019-03-16T09:05:36.638Z,2.33
2019-03-16T09:08:07.191Z,2.40
2019-03-16T09:10:37.556Z,1.70
2019-03-16T09:13:07.825Z,2.20
2019-03-16T09:15:38.145Z,2.13
2019-03-16T09:18:08.409Z,1.83
2019-03-16T09:20:38.726Z,2.03
2019-03-16T09:23:08.992Z,2.10
2019-03-16T09:33:34.170Z,2.20
2019-03-16T09:36:04.662Z,2.10
2019-03-16T09:38:34.920Z,2.77
2019-03-16T09:43:48.152Z,4.53
2019-03-16T09:46:18.623Z,4.07
2019-03-16T09:48:48.930Z,4.97
2019-03-16T09:51:19.309Z,4.60
2019-03-16T09:53:49.546Z,4.80
2019-03-16T09:56:19.844Z,6.87
2019-03-16T09:58:50.191Z,4.03
2019-03-16T10:01:20.454Z,6.33
2019-03-16T10:03:50.677Z,9.40
2019-03-16T10:06:20.990Z,8.07
2019-03-16T10:08:51.278Z,7.93
2019-03-16T10:11:21.546Z,9.10
2019-03-16T10:13:51.819Z,4.63
2019-03-16T10:16:22.175Z,4.70
2019-03-16T10:18:52.408Z,5.17
2019-03-16T10:21:22.678Z,6.40
2019-03-16T10:23:52.896Z,3.07
2019-03-16T10:26:23.206Z,2.70
2019-03-16T10:28:53.441Z,3.33
2019-03-16T10:31:23.708Z,4.47
2019-03-16T10:33:53.930Z,4.13
2019-03-16T10:36:24.168Z,2.80
2019-03-16T10:38:54.388Z,4.47
2019-03-16T10:41:24.632Z,3.20
2019-03-16T10:43:54.956Z,2.80
2019-03-16T10:46:25.204Z,2.60
2019-03-16T10:48:55.466Z,2.20
2019-03-16T10:51:27.681Z,3.60
2019-03-16T10:53:57.687Z,2.90
2019-03-16T10:56:27.955Z,2.70
2019-03-16T10:58:58.444Z,3.33
2019-03-16T11:01:28.744Z,2.80
2019-03-16T11:03:58.980Z,1.80
2019-03-16T11:06:29.239Z,1.33
2019-03-16T11:08:59.667Z,1.70
2019-03-16T11:11:30.024Z,1.93
2019-03-16T11:14:00.253Z,2.23
2019-03-16T11:16:30.502Z,3.77
2019-03-16T11:19:00.747Z,3.87
2019-03-16T11:21:31.031Z,2.20
2019-03-16T11:24:01.238Z,2.60
2019-03-16T11:26:31.692Z,3.07
2019-03-16T11:29:08.819Z,1.63
2019-03-16T11:31:33.846Z,1.30
2019-03-16T11:34:04.057Z,1.67
2019-03-16T11:36:34.367Z,3.00
2019-03-16T11:39:06.557Z,2.90
2019-03-16T11:41:36.803Z,2.13
2019-03-16T11:44:07.005Z,1.87
2019-03-16T11:46:37.743Z,1.20
2019-03-16T11:49:08.150Z,0.80
2019-03-16T11:51:38.408Z,1.50
2019-03-16T11:54:08.074Z,1.57
2019-03-16T11:56:38.259Z,1.27
2019-03-16T11:59:20.797Z,2.93
2019-03-16T12:01:41.278Z,1.70
2019-03-16T12:04:11.505Z,2.50
2019-03-16T12:06:41.887Z,2.60
2019-03-16T12:09:12.262Z,2.20
2019-03-16T12:11:42.762Z,2.37
2019-03-16T12:14:12.984Z,2.10
2019-03-16T12:16:43.499Z,5.77
2019-03-16T12:19:13.740Z,5.47
2019-03-16T12:21:44.012Z,5.30
2019-03-16T12:24:14.386Z,24.30
2019-03-16T12:26:44.818Z,14.40
2019-03-16T12:29:15.247Z,6.63
2019-03-16T12:31:45.496Z,8.23
2019-03-16T12:34:15.746Z,11.23
2019-03-16T12:36:45.986Z,6.67
2019-03-16T12:39:16.517Z,9.87
2019-03-16T12:41:46.775Z,11.60
2019-03-16T12:44:17.087Z,11.03
2019-03-16T12:46:47.310Z,12.03
2019-03-16T12:49:17.699Z,4.83
2019-03-16T12:51:47.934Z,5.07
2019-03-16T12:54:18.385Z,8.63
2019-03-16T12:56:48.600Z,7.27
2019-03-16T12:59:19.876Z,4.47
2019-03-16T13:01:50.110Z,3.30
2019-03-16T13:04:20.483Z,2.60
2019-03-16T13:06:50.723Z,4.83
2019-03-16T13:09:22.095Z,6.40
2019-03-16T13:11:52.313Z,2.50
2019-03-16T13:14:22.534Z,2.23
2019-03-16T13:16:52.879Z,5.50
2019-03-16T13:19:23.127Z,3.80
2019-03-16T13:21:53.350Z,6.67
2019-03-16T13:24:23.586Z,5.90
2019-03-16T13:26:53.839Z,3.80
2019-03-16T13:29:24.239Z,3.83
2019-03-16T13:31:54.494Z,2.73
2019-03-16T13:34:25.024Z,2.53
2019-03-16T13:36:55.254Z,16.93
2019-03-16T13:39:25.526Z,6.83
2019-03-16T13:41:55.822Z,8.87
2019-03-16T13:44:26.080Z,11.80
2019-03-16T13:46:56.456Z,7.27
2019-03-16T13:49:26.743Z,7.60
2019-03-16T13:51:57.060Z,3.87
2019-03-16T13:54:27.500Z,3.33
2019-03-16T13:56:57.778Z,5.40
2019-03-16T13:59:28.019Z,5.40
2019-03-16T14:01:58.258Z,8.30
2019-03-16T14:04:28.790Z,8.03
2019-03-16T14:06:59.124Z,2.90
2019-03-16T14:09:29.369Z,3.30
2019-03-16T14:11:59.867Z,4.63
2019-03-16T14:14:30.075Z,3.73
2019-03-16T14:17:00.311Z,3.43
2019-03-16T14:19:30.576Z,3.40
2019-03-16T14:22:00.843Z,3.27
2019-03-16T14:24:31.066Z,3.20
2019-03-16T14:27:01.414Z,1.97
2019-03-16T14:29:31.710Z,2.40
2019-03-16T14:32:01.992Z,2.57
2019-03-16T14:34:32.626Z,5.33
2019-03-16T14:37:02.844Z,3.33
2019-03-16T14:39:33.159Z,2.03
2019-03-16T14:42:03.979Z,1.63
2019-03-16T14:44:34.300Z,2.10
2019-03-16T14:47:04.546Z,1.23
2019-03-16T14:49:35.087Z,2.13
2019-03-16T14:52:05.584Z,2.30
2019-03-16T14:54:35.832Z,2.30
2019-03-16T14:57:06.050Z,1.80
2019-03-16T14:59:36.383Z,1.77
2019-03-16T15:02:06.627Z,1.80
2019-03-16T15:04:36.866Z,1.60
2019-03-16T15:07:07.137Z,2.50
2019-03-16T15:09:37.403Z,2.63
2019-03-16T15:12:08.138Z,2.40
2019-03-16T15:14:38.459Z,2.07
2019-03-16T15:17:08.687Z,1.53
2019-03-16T15:19:39.010Z,1.60
2019-03-16T15:22:12.007Z,2.33
2019-03-16T15:24:41.330Z,2.60
2019-03-16T15:27:11.574Z,2.60
2019-03-16T15:29:41.834Z,2.73
2019-03-16T15:32:12.797Z,6.17
2019-03-16T15:34:43.090Z,9.80
2019-03-16T15:37:13.314Z,13.37
2019-03-16T15:39:43.577Z,8.23
2019-03-16T15:42:13.774Z,5.83
2019-03-16T15:44:44.086Z,8.33
2019-03-16T15:47:14.327Z,10.70
2019-03-16T15:49:44.565Z,8.60
2019-03-16T15:52:14.801Z,11.43
2019-03-16T15:54:45.095Z,5.03
2019-03-16T15:57:15.373Z,6.57
2019-03-16T15:59:45.925Z,5.23
2019-03-16T16:02:16.126Z,4.77
2019-03-16T16:04:46.375Z,3.87
2019-03-16T16:07:16.639Z,6.83
2019-03-16T16:09:46.900Z,4.90
2019-03-16T16:12:17.112Z,4.03
2019-03-16T16:14:47.944Z,3.90
2019-03-16T16:17:18.217Z,3.00
2019-03-16T16:19:48.462Z,2.93
2019-03-16T16:22:18.726Z,5.77
2019-03-16T16:24:48.962Z,10.27
2019-03-16T16:27:19.179Z,10.53
2019-03-16T16:29:49.652Z,8.20
2019-03-16T16:32:20.023Z,3.27
2019-03-16T16:34:51.347Z,3.35
2019-03-16T16:37:21.556Z,2.10
2019-03-16T16:39:51.795Z,2.10
2019-03-16T16:42:22.012Z,2.37
2019-03-16T16:44:52.461Z,2.00
2019-03-16T16:47:22.774Z,2.83
2019-03-16T16:49:53.010Z,2.27
2019-03-16T16:52:23.326Z,1.90
2019-03-16T16:54:53.563Z,1.87
2019-03-16T16:57:23.785Z,1.83
2019-03-16T16:59:54.073Z,3.10
2019-03-16T17:02:24.331Z,3.10
2019-03-16T17:04:54.586Z,2.90
2019-03-16T17:07:24.833Z,2.20
2019-03-16T17:09:55.065Z,2.03
2019-03-16T17:12:25.299Z,2.10
2019-03-16T17:14:55.606Z,1.90
2019-03-16T17:17:35.065Z,2.63
2019-03-16T17:19:57.892Z,5.10
2019-03-16T17:22:28.157Z,4.70
2019-03-16T17:24:58.387Z,5.17
2019-03-16T17:27:28.871Z,2.43
2019-03-16T17:29:59.200Z,1.77
2019-03-16T17:32:29.526Z,2.20
2019-03-16T17:34:59.756Z,2.07
2019-03-16T17:37:31.192Z,2.23
2019-03-16T17:40:01.489Z,2.80
2019-03-16T17:42:31.930Z,2.40
2019-03-16T17:45:02.147Z,1.90
2019-03-16T17:47:32.499Z,1.30
2019-03-16T17:50:03.033Z,2.17
2019-03-16T17:52:34.530Z,2.33
2019-03-16T17:55:05.455Z,2.60
2019-03-16T17:57:36.338Z,2.20
2019-03-16T18:00:07.235Z,2.13
2019-03-16T18:02:50.150Z,2.07
2019-03-16T18:05:09.714Z,3.17
2019-03-16T18:07:40.239Z,2.13
2019-03-16T18:10:10.547Z,2.07
2019-03-16T18:12:40.959Z,2.40
2019-03-16T18:15:12.024Z,2.13
2019-03-16T18:18:03.589Z,2.40
2019-03-16T18:20:34.049Z,2.47
2019-03-16T18:23:04.582Z,2.80
2019-03-16T18:25:37.667Z,3.03
2019-03-16T18:28:07.147Z,3.07
2019-03-16T18:30:37.522Z,2.57
2019-03-16T18:33:07.797Z,4.33
2019-03-16T18:35:38.045Z,3.20
2019-03-16T18:38:08.501Z,3.10
2019-03-16T18:40:38.786Z,2.73
2019-03-16T18:43:09.015Z,3.00
2019-03-16T18:45:39.443Z,4.20
2019-03-16T18:48:09.802Z,2.33
2019-03-16T18:50:40.507Z,2.73
2019-03-16T18:53:11.152Z,3.17
2019-03-16T18:55:41.836Z,3.30
2019-03-16T18:58:12.414Z,2.87
2019-03-16T19:00:43.013Z,3.07
2019-03-16T19:03:13.575Z,3.10
2019-03-16T19:05:44.261Z,4.40
2019-03-16T19:08:14.707Z,4.40
2019-03-16T19:10:45.128Z,5.00
2019-03-16T19:13:15.484Z,3.10
2019-03-16T19:15:45.855Z,2.53
2019-03-16T19:18:16.194Z,5.23
2019-03-16T19:20:46.692Z,4.37
2019-03-16T19:23:17.094Z,3.63
2019-03-16T19:25:47.477Z,2.93
2019-03-16T19:28:18.690Z,5.13
2019-03-16T19:30:49.466Z,2.90
2019-03-16T19:33:19.698Z,2.30
2019-03-16T19:35:50.104Z,3.80
2019-03-16T19:38:20.481Z,2.83
2019-03-16T19:40:51.071Z,4.23
2019-03-16T19:43:21.400Z,3.90
2019-03-16T19:45:51.739Z,2.30
2019-03-16T19:48:22.063Z,3.87
2019-03-16T19:50:52.375Z,3.60
2019-03-16T19:53:23.018Z,4.23
2019-03-16T19:55:53.670Z,6.10
2019-03-16T19:58:24.013Z,4.83
2019-03-16T20:00:54.486Z,3.40
2019-03-16T20:03:24.852Z,6.47
2019-03-16T20:05:55.238Z,4.63
2019-03-16T20:08:25.516Z,3.63
2019-03-16T20:11:06.015Z,3.33
2019-03-16T20:13:27.893Z,3.00
2019-03-16T20:15:58.215Z,2.60
2019-03-16T20:18:28.526Z,4.27
2019-03-16T20:20:58.814Z,2.70
2019-03-16T20:23:29.155Z,2.87
2019-03-16T20:25:59.760Z,2.67
2019-03-16T20:28:30.112Z,9.27
2019-03-16T20:31:00.501Z,4.37
2019-03-16T20:33:30.839Z,3.07
2019-03-16T20:36:01.153Z,3.73
2019-03-16T20:38:31.447Z,2.93
2019-03-16T20:41:01.923Z,16.27
2019-03-16T20:43:32.165Z,3.00
2019-03-16T20:46:02.723Z,3.57
2019-03-16T20:48:33.027Z,3.10
2019-03-16T20:51:03.417Z,3.97
2019-03-16T20:53:33.731Z,2.17
2019-03-16T20:56:04.010Z,3.33
2019-03-16T20:58:34.310Z,2.70
2019-03-16T21:01:04.700Z,3.73
2019-03-16T21:03:35.104Z,3.60
2019-03-16T21:06:05.550Z,2.00
2019-03-16T21:08:36.218Z,2.13
2019-03-16T21:11:06.811Z,2.90
2019-03-16T21:13:37.194Z,2.90
2019-03-16T21:16:07.463Z,5.37
2019-03-16T21:18:37.887Z,2.50
2019-03-16T21:21:08.256Z,3.10
2019-03-16T21:23:38.549Z,2.50
2019-03-16T21:26:08.779Z,3.43
2019-03-16T21:28:39.116Z,2.90
2019-03-16T21:31:09.494Z,2.50
2019-03-16T21:33:39.765Z,2.27
2019-03-16T21:36:10.052Z,3.10
2019-03-16T21:38:40.275Z,2.67
2019-03-16T21:41:10.703Z,2.90
2019-03-16T21:43:40.934Z,2.93
2019-03-16T21:46:11.342Z,2.80
2019-03-16T21:48:41.751Z,4.57
2019-03-16T21:51:12.099Z,4.63
2019-03-16T21:53:42.356Z,2.90
2019-03-16T21:56:12.869Z,2.70
2019-03-16T21:58:43.211Z,2.57
2019-03-16T22:01:13.915Z,4.67
2019-03-16T22:03:44.170Z,3.83
2019-03-16T22:06:14.646Z,3.70
2019-03-16T22:08:44.979Z,2.60
2019-03-16T22:11:15.806Z,3.60
2019-03-16T22:13:46.079Z,2.40
2019-03-16T22:16:16.483Z,3.90
2019-03-16T22:18:46.920Z,3.57
2019-03-16T22:21:17.470Z,4.90
2019-03-16T22:23:47.897Z,5.07
2019-03-16T22:26:19.206Z,7.60
2019-03-16T22:28:49.646Z,10.43
2019-03-16T22:31:19.974Z,3.87
2019-03-16T22:33:54.795Z,3.30
2019-03-16T22:36:22.329Z,11.60
2019-03-16T22:38:52.721Z,3.30
2019-03-16T22:41:23.294Z,5.40
2019-03-16T22:43:53.759Z,2.60
2019-03-16T22:46:23.968Z,5.63
2019-03-16T22:48:54.283Z,3.80
2019-03-16T22:51:24.720Z,4.17
2019-03-16T22:53:55.205Z,3.90
2019-03-16T22:56:26.470Z,3.63
2019-03-16T22:58:57.082Z,3.90
2019-03-16T23:01:27.401Z,7.73
2019-03-16T23:04:06.445Z,3.33
2019-03-16T23:06:29.782Z,3.47
2019-03-16T23:09:00.069Z,6.07
2019-03-16T23:11:30.360Z,5.43
2019-03-16T23:14:01.184Z,3.53
2019-03-16T23:16:31.390Z,3.03
2019-03-16T23:19:01.893Z,3.60
2019-03-16T23:21:32.106Z,3.80
2019-03-16T23:24:02.609Z,3.77
2019-03-16T23:26:38.254Z,2.73
2019-03-16T23:29:04.805Z,3.80
2019-03-16T23:31:35.067Z,3.67
2019-03-16T23:34:05.295Z,2.70
2019-03-16T23:36:35.567Z,3.20
2019-03-16T23:39:06.038Z,3.00
2019-03-16T23:41:36.257Z,2.60
2019-03-16T23:44:06.505Z,6.70
2019-03-16T23:46:36.725Z,3.00
2019-03-16T23:49:07.027Z,4.50
2019-03-16T23:51:37.389Z,4.10
2019-03-16T23:54:07.640Z,4.90
2019-03-16T23:56:37.936Z,5.57
2019-03-16T23:59:08.320Z,6.50
